sensor_id;sensor_type;location;lat;lon;timestamp;pressure;altitude;pressure_sealevel;temperature;humidity
71666;BME280;59503;53.486;10.196;2022-08-23T00:01:12;101702.47;;;18.64;74.27
71666;BME280;59503;53.486;10.196;2022-08-23T00:03:39;101683.56;;;18.58;74.37
71666;BME280;59503;53.486;10.196;2022-08-23T00:06:05;101694.19;;;18.64;74.66
71666;BME280;59503;53.486;10.196;2022-08-23T00:08:30;101696.94;;;18.64;75.08
71666;BME280;59503;53.486;10.196;2022-08-23T00:10:57;101698.91;;;18.67;74.96
71666;BME280;59503;53.486;10.196;2022-08-23T00:13:23;101687.91;;;18.63;75.15
71666;BME280;59503;53.486;10.196;2022-08-23T00:15:49;101697.75;;;18.64;75.29
71666;BME280;59503;53.486;10.196;2022-08-23T00:18:15;101696.94;;;18.56;75.31
71666;BME280;59503;53.486;10.196;2022-08-23T00:20:41;101701.69;;;18.60;75.45
71666;BME280;59503;53.486;10.196;2022-08-23T00:23:07;101701.28;;;18.61;75.56
71666;BME280;59503;53.486;10.196;2022-08-23T00:25:32;101705.59;;;18.62;75.30
71666;BME280;59503;53.486;10.196;2022-08-23T00:27:57;101699.69;;;18.60;75.35
71666;BME280;59503;53.486;10.196;2022-08-23T00:30:23;101707.56;;;18.62;75.41
71666;BME280;59503;53.486;10.196;2022-08-23T00:32:49;101699.69;;;18.56;75.62
71666;BME280;59503;53.486;10.196;2022-08-23T00:35:15;101706.00;;;18.57;75.59
71666;BME280;59503;53.486;10.196;2022-08-23T00:37:42;101705.22;;;18.53;75.75
71666;BME280;59503;53.486;10.196;2022-08-23T00:40:10;101697.72;;;18.53;75.43
71666;BME280;59503;53.486;10.196;2022-08-23T00:45:43;101692.22;;;18.46;75.68
71666;BME280;59503;53.486;10.196;2022-08-23T00:48:30;101705.97;;;18.46;75.64
71666;BME280;59503;53.486;10.196;2022-08-23T00:51:05;101709.53;;;18.43;75.84
71666;BME280;59503;53.486;10.196;2022-08-23T00:53:36;101705.22;;;18.42;76.13
71666;BME280;59503;53.486;10.196;2022-08-23T00:56:07;101704.00;;;18.40;76.15
71666;BME280;59503;53.486;10.196;2022-08-23T00:58:34;101712.63;;;18.38;76.09
71666;BME280;59503;53.486;10.196;2022-08-23T01:01:01;101702.00;;;18.33;76.33
71666;BME280;59503;53.486;10.196;2022-08-23T01:03:30;101716.19;;;18.35;76.44
71666;BME280;59503;53.486;10.196;2022-08-23T01:06:19;101715.38;;;18.35;76.23
71666;BME280;59503;53.486;10.196;2022-08-23T01:08:51;101718.13;;;18.31;76.28
71666;BME280;59503;53.486;10.196;2022-08-23T01:13:53;101711.84;;;18.27;76.69
71666;BME280;59503;53.486;10.196;2022-08-23T01:16:31;101716.56;;;18.30;76.45
71666;BME280;59503;53.486;10.196;2022-08-23T01:19:00;101718.13;;;18.24;76.69
71666;BME280;59503;53.486;10.196;2022-08-23T01:21:58;101716.94;;;18.25;76.84
71666;BME280;59503;53.486;10.196;2022-08-23T01:24:25;101709.47;;;18.19;76.84
71666;BME280;59503;53.486;10.196;2022-08-23T01:26:51;101714.16;;;18.18;76.82
71666;BME280;59503;53.486;10.196;2022-08-23T01:29:17;101718.09;;;18.17;76.98
71666;BME280;59503;53.486;10.196;2022-08-23T01:31:43;101707.88;;;18.11;77.34
71666;BME280;59503;53.486;10.196;2022-08-23T01:34:10;101715.72;;;18.09;77.28
71666;BME280;59503;53.486;10.196;2022-08-23T01:36:36;101718.84;;;18.04;77.52
71666;BME280;59503;53.486;10.196;2022-08-23T01:39:05;101714.53;;;17.99;77.88
71666;BME280;59503;53.486;10.196;2022-08-23T01:41:32;101717.66;;;18.01;78.22
71666;BME280;59503;53.486;10.196;2022-08-23T01:43:58;101716.88;;;18.01;77.88
71666;BME280;59503;53.486;10.196;2022-08-23T01:46:24;101716.47;;;17.99;77.96
71666;BME280;59503;53.486;10.196;2022-08-23T01:48:52;101709.38;;;17.94;78.40
71666;BME280;59503;53.486;10.196;2022-08-23T01:51:22;101709.03;;;17.99;78.24
71666;BME280;59503;53.486;10.196;2022-08-23T01:53:48;101718.44;;;18.02;78.13
71666;BME280;59503;53.486;10.196;2022-08-23T01:56:16;101713.34;;;18.00;78.37
71666;BME280;59503;53.486;10.196;2022-08-23T01:58:46;101702.69;;;17.92;78.46
71666;BME280;59503;53.486;10.196;2022-08-23T02:01:12;101708.59;;;17.94;78.33
71666;BME280;59503;53.486;10.196;2022-08-23T02:03:38;101714.50;;;17.92;78.68
71666;BME280;59503;53.486;10.196;2022-08-23T02:06:04;101702.28;;;17.90;78.76
71666;BME280;59503;53.486;10.196;2022-08-23T02:08:29;101710.16;;;17.91;78.79
71666;BME280;59503;53.486;10.196;2022-08-23T02:11:16;101702.28;;;17.86;78.56
71666;BME280;59503;53.486;10.196;2022-08-23T02:13:43;101710.53;;;17.86;78.41
71666;BME280;59503;53.486;10.196;2022-08-23T02:16:10;101716.44;;;17.88;78.51
71666;BME280;59503;53.486;10.196;2022-08-23T02:18:36;101711.31;;;17.83;78.79
71666;BME280;59503;53.486;10.196;2022-08-23T02:21:03;101717.22;;;17.85;78.61
71666;BME280;59503;53.486;10.196;2022-08-23T02:23:29;101715.25;;;17.82;78.84
71666;BME280;59503;53.486;10.196;2022-08-23T02:25:54;101711.28;;;17.80;78.54
71666;BME280;59503;53.486;10.196;2022-08-23T02:28:21;101723.09;;;17.80;78.44
71666;BME280;59503;53.486;10.196;2022-08-23T02:30:48;101712.09;;;17.80;78.42
71666;BME280;59503;53.486;10.196;2022-08-23T02:33:14;101722.69;;;17.78;78.56
71666;BME280;59503;53.486;10.196;2022-08-23T02:35:39;101723.47;;;17.75;78.56
71666;BME280;59503;53.486;10.196;2022-08-23T02:38:07;101726.63;;;17.77;77.94
71666;BME280;59503;53.486;10.196;2022-08-23T02:40:34;101719.50;;;17.73;78.14
71666;BME280;59503;53.486;10.196;2022-08-23T02:43:00;101720.31;;;17.73;77.94
71666;BME280;59503;53.486;10.196;2022-08-23T02:45:27;101717.16;;;17.71;78.20
71666;BME280;59503;53.486;10.196;2022-08-23T02:47:53;101718.72;;;17.69;78.25
71666;BME280;59503;53.486;10.196;2022-08-23T02:50:19;101724.97;;;17.69;78.40
71666;BME280;59503;53.486;10.196;2022-08-23T02:52:45;101721.84;;;17.64;78.20
71666;BME280;59503;53.486;10.196;2022-08-23T02:55:11;101725.34;;;17.64;78.20
71666;BME280;59503;53.486;10.196;2022-08-23T02:57:37;101725.75;;;17.63;78.25
71666;BME280;59503;53.486;10.196;2022-08-23T03:00:06;101728.91;;;17.65;77.87
71666;BME280;59503;53.486;10.196;2022-08-23T03:02:33;101729.28;;;17.63;78.04
71666;BME280;59503;53.486;10.196;2022-08-23T03:04:58;101732.81;;;17.60;78.13
71666;BME280;59503;53.486;10.196;2022-08-23T03:07:23;101722.59;;;17.57;77.81
71666;BME280;59503;53.486;10.196;2022-08-23T03:09:49;101726.53;;;17.60;77.84
71666;BME280;59503;53.486;10.196;2022-08-23T03:12:14;101730.44;;;17.55;77.98
71666;BME280;59503;53.486;10.196;2022-08-23T03:14:40;101736.34;;;17.57;77.99
71666;BME280;59503;53.486;10.196;2022-08-23T03:17:06;101734.34;;;17.54;78.06
71666;BME280;59503;53.486;10.196;2022-08-23T03:19:32;101734.31;;;17.51;78.47
71666;BME280;59503;53.486;10.196;2022-08-23T03:21:58;101725.69;;;17.49;78.44
71666;BME280;59503;53.486;10.196;2022-08-23T03:24:23;101735.88;;;17.48;78.61
71666;BME280;59503;53.486;10.196;2022-08-23T03:26:49;101732.72;;;17.46;78.63
71666;BME280;59503;53.486;10.196;2022-08-23T03:29:15;101735.81;;;17.41;78.54
71666;BME280;59503;53.486;10.196;2022-08-23T03:31:41;101735.81;;;17.41;78.71
71666;BME280;59503;53.486;10.196;2022-08-23T03:34:07;101739.34;;;17.38;78.96
71666;BME280;59503;53.486;10.196;2022-08-23T03:36:32;101744.81;;;17.38;79.02
71666;BME280;59503;53.486;10.196;2022-08-23T03:38:59;101744.81;;;17.34;79.07
71666;BME280;59503;53.486;10.196;2022-08-23T03:41:25;101740.88;;;17.32;79.21
71666;BME280;59503;53.486;10.196;2022-08-23T03:43:51;101746.38;;;17.32;79.22
71666;BME280;59503;53.486;10.196;2022-08-23T03:46:17;101753.03;;;17.31;79.26
71666;BME280;59503;53.486;10.196;2022-08-23T03:48:51;101743.97;;;17.27;79.50
71666;BME280;59503;53.486;10.196;2022-08-23T03:51:18;101746.31;;;17.25;79.53
71666;BME280;59503;53.486;10.196;2022-08-23T03:53:45;101751.41;;;17.23;79.50
71666;BME280;59503;53.486;10.196;2022-08-23T03:58:51;101760.41;;;17.20;79.35
71666;BME280;59503;53.486;10.196;2022-08-23T04:01:17;101762.75;;;17.18;79.20
71666;BME280;59503;53.486;10.196;2022-08-23T04:03:43;101749.75;;;17.11;79.04
71666;BME280;59503;53.486;10.196;2022-08-23T04:06:09;101757.66;;;17.20;78.87
71666;BME280;59503;53.486;10.196;2022-08-23T04:08:35;101758.44;;;17.17;78.94
71666;BME280;59503;53.486;10.196;2022-08-23T04:11:01;101761.94;;;17.14;79.00
71666;BME280;59503;53.486;10.196;2022-08-23T04:13:27;101767.84;;;17.16;78.71
71666;BME280;59503;53.486;10.196;2022-08-23T04:15:54;101764.63;;;17.10;78.98
71666;BME280;59503;53.486;10.196;2022-08-23T04:18:20;101774.88;;;17.10;78.48
71666;BME280;59503;53.486;10.196;2022-08-23T04:20:46;101773.28;;;17.09;78.49
71666;BME280;59503;53.486;10.196;2022-08-23T04:23:12;101771.72;;;17.08;78.34
71666;BME280;59503;53.486;10.196;2022-08-23T04:25:38;101768.53;;;17.06;78.41
71666;BME280;59503;53.486;10.196;2022-08-23T04:28:04;101774.44;;;17.08;78.14
71666;BME280;59503;53.486;10.196;2022-08-23T04:30:31;101778.00;;;17.08;77.98
71666;BME280;59503;53.486;10.196;2022-08-23T04:32:57;101771.28;;;17.06;77.69
71666;BME280;59503;53.486;10.196;2022-08-23T04:35:23;101779.94;;;17.08;77.80
71666;BME280;59503;53.486;10.196;2022-08-23T04:37:49;101777.19;;;17.08;77.49
71666;BME280;59503;53.486;10.196;2022-08-23T04:40:15;101789.75;;;17.09;77.27
71666;BME280;59503;53.486;10.196;2022-08-23T04:43:00;101788.25;;;17.15;77.18
71666;BME280;59503;53.486;10.196;2022-08-23T04:45:26;101787.91;;;17.20;76.78
71666;BME280;59503;53.486;10.196;2022-08-23T04:47:52;101790.69;;;17.23;76.54
71666;BME280;59503;53.486;10.196;2022-08-23T04:50:18;101795.78;;;17.25;76.45
71666;BME280;59503;53.486;10.196;2022-08-23T04:52:43;101796.19;;;17.30;75.73
71666;BME280;59503;53.486;10.196;2022-08-23T04:55:09;101804.09;;;17.32;75.02
71666;BME280;59503;53.486;10.196;2022-08-23T04:57:34;101807.22;;;17.34;74.72
71666;BME280;59503;53.486;10.196;2022-08-23T05:00:00;101808.44;;;17.36;74.43
71666;BME280;59503;53.486;10.196;2022-08-23T05:02:26;101816.72;;;17.40;74.28
71666;BME280;59503;53.486;10.196;2022-08-23T05:04:52;101806.91;;;17.42;74.32
71666;BME280;59503;53.486;10.196;2022-08-23T05:07:18;101809.25;;;17.44;74.37
71666;BME280;59503;53.486;10.196;2022-08-23T05:09:43;101816.34;;;17.45;73.54
71666;BME280;59503;53.486;10.196;2022-08-23T05:12:11;101819.94;;;17.49;72.85
71666;BME280;59503;53.486;10.196;2022-08-23T05:14:36;101823.09;;;17.51;72.64
71666;BME280;59503;53.486;10.196;2022-08-23T05:17:02;101825.09;;;17.58;71.25
71666;BME280;59503;53.486;10.196;2022-08-23T05:19:27;101819.66;;;17.65;71.74
71666;BME280;59503;53.486;10.196;2022-08-23T05:21:53;101824.00;;;17.66;71.90
71666;BME280;59503;53.486;10.196;2022-08-23T05:24:18;101828.75;;;17.72;70.82
71666;BME280;59503;53.486;10.196;2022-08-23T05:26:44;101822.53;;;17.82;70.18
71666;BME280;59503;53.486;10.196;2022-08-23T05:29:09;101828.84;;;17.93;69.73
71666;BME280;59503;53.486;10.196;2022-08-23T05:31:34;101827.31;;;18.03;68.39
71666;BME280;59503;53.486;10.196;2022-08-23T05:34:00;101828.56;;;18.09;68.18
71666;BME280;59503;53.486;10.196;2022-08-23T05:36:26;101823.06;;;18.12;67.92
71666;BME280;59503;53.486;10.196;2022-08-23T05:38:51;101822.72;;;18.24;68.25
71666;BME280;59503;53.486;10.196;2022-08-23T05:41:17;101821.97;;;18.34;66.94
71666;BME280;59503;53.486;10.196;2022-08-23T05:43:44;101824.38;;;18.46;66.12
71666;BME280;59503;53.486;10.196;2022-08-23T05:46:13;101831.91;;;18.60;66.64
71666;BME280;59503;53.486;10.196;2022-08-23T05:48:40;101827.59;;;18.77;67.17
71666;BME280;59503;53.486;10.196;2022-08-23T05:51:11;101836.28;;;18.86;64.40
71666;BME280;59503;53.486;10.196;2022-08-23T05:53:39;101839.84;;;19.04;64.99
71666;BME280;59503;53.486;10.196;2022-08-23T05:56:14;101829.63;;;19.25;65.54
71666;BME280;59503;53.486;10.196;2022-08-23T05:58:40;101838.31;;;19.38;64.46
71666;BME280;59503;53.486;10.196;2022-08-23T06:01:07;101845.00;;;19.72;63.05
71666;BME280;59503;53.486;10.196;2022-08-23T06:03:33;101849.28;;;19.94;62.74
71666;BME280;59503;53.486;10.196;2022-08-23T06:05:59;101842.91;;;20.08;61.25
71666;BME280;59503;53.486;10.196;2022-08-23T06:08:25;101844.84;;;20.21;61.38
71666;BME280;59503;53.486;10.196;2022-08-23T06:11:03;101846.03;;;20.27;60.18
71666;BME280;59503;53.486;10.196;2022-08-23T06:13:29;101842.47;;;20.30;60.56
71666;BME280;59503;53.486;10.196;2022-08-23T06:15:55;101858.22;;;20.33;59.74
71666;BME280;59503;53.486;10.196;2022-08-23T06:18:22;101845.59;;;20.36;59.46
71666;BME280;59503;53.486;10.196;2022-08-23T06:20:47;101862.50;;;20.48;58.50
71666;BME280;59503;53.486;10.196;2022-08-23T06:23:13;101853.78;;;20.53;60.06
71666;BME280;59503;53.486;10.196;2022-08-23T06:25:39;101854.97;;;20.59;59.71
71666;BME280;59503;53.486;10.196;2022-08-23T06:28:04;101855.59;;;20.84;60.06
71666;BME280;59503;53.486;10.196;2022-08-23T06:30:30;101857.88;;;21.04;59.22
71666;BME280;59503;53.486;10.196;2022-08-23T06:32:55;101866.31;;;21.34;57.62
71666;BME280;59503;53.486;10.196;2022-08-23T06:35:21;101867.91;;;21.35;57.51
71666;BME280;59503;53.486;10.196;2022-08-23T06:37:46;101864.00;;;21.29;57.07
71666;BME280;59503;53.486;10.196;2022-08-23T06:40:11;101867.19;;;21.24;57.28
71666;BME280;59503;53.486;10.196;2022-08-23T06:42:37;101864.06;;;21.22;58.27
71666;BME280;59503;53.486;10.196;2022-08-23T06:45:03;101865.09;;;20.80;58.46
71666;BME280;59503;53.486;10.196;2022-08-23T06:47:29;101866.06;;;20.45;59.43
71666;BME280;59503;53.486;10.196;2022-08-23T06:49:56;101866.91;;;20.39;60.80
71666;BME280;59503;53.486;10.196;2022-08-23T06:52:23;101858.28;;;20.12;61.00
71666;BME280;59503;53.486;10.196;2022-08-23T06:54:51;101864.66;;;19.88;62.02
71666;BME280;59503;53.486;10.196;2022-08-23T06:57:16;101857.59;;;19.66;62.53
71666;BME280;59503;53.486;10.196;2022-08-23T06:59:42;101865.50;;;19.46;63.47
71666;BME280;59503;53.486;10.196;2022-08-23T07:02:08;101866.69;;;19.35;64.60
71666;BME280;59503;53.486;10.196;2022-08-23T07:04:36;101860.78;;;19.40;64.82
71666;BME280;59503;53.486;10.196;2022-08-23T07:07:03;101857.59;;;19.59;64.49
71666;BME280;59503;53.486;10.196;2022-08-23T07:09:30;101852.47;;;19.82;63.10
71666;BME280;59503;53.486;10.196;2022-08-23T07:11:56;101857.50;;;20.08;62.10
71666;BME280;59503;53.486;10.196;2022-08-23T07:14:22;101865.78;;;20.26;62.11
71666;BME280;59503;53.486;10.196;2022-08-23T07:16:52;101861.34;;;20.46;60.80
71666;BME280;59503;53.486;10.196;2022-08-23T07:19:21;101861.94;;;20.81;61.19
71666;BME280;59503;53.486;10.196;2022-08-23T07:21:47;101865.41;;;21.00;60.37
71666;BME280;59503;53.486;10.196;2022-08-23T07:24:14;101866.50;;;21.13;59.70
71666;BME280;59503;53.486;10.196;2022-08-23T07:26:41;101867.53;;;21.33;57.83
71666;BME280;59503;53.486;10.196;2022-08-23T07:29:08;101865.38;;;21.51;57.96
71666;BME280;59503;53.486;10.196;2022-08-23T07:31:39;101878.56;;;21.84;56.54
71666;BME280;59503;53.486;10.196;2022-08-23T07:34:05;101885.22;;;21.90;55.81
71666;BME280;59503;53.486;10.196;2022-08-23T07:36:32;101881.66;;;21.89;56.97
71666;BME280;59503;53.486;10.196;2022-08-23T07:38:58;101880.06;;;21.92;55.76
71666;BME280;59503;53.486;10.196;2022-08-23T07:41:28;101876.63;;;22.14;55.39
71666;BME280;59503;53.486;10.196;2022-08-23T07:43:55;101879.34;;;22.52;54.32
71666;BME280;59503;53.486;10.196;2022-08-23T07:46:22;101880.84;;;22.60;53.47
71666;BME280;59503;53.486;10.196;2022-08-23T07:48:48;101885.13;;;22.94;54.70
71666;BME280;59503;53.486;10.196;2022-08-23T07:51:14;101878.34;;;23.22;53.00
71666;BME280;59503;53.486;10.196;2022-08-23T07:53:39;101890.81;;;23.37;50.76
71666;BME280;59503;53.486;10.196;2022-08-23T07:56:09;101875.19;;;23.23;50.87
71666;BME280;59503;53.486;10.196;2022-08-23T07:58:35;101876.78;;;23.48;52.20
71666;BME280;59503;53.486;10.196;2022-08-23T08:01:14;101884.13;;;23.58;51.71
71666;BME280;59503;53.486;10.196;2022-08-23T08:03:41;101881.34;;;24.04;50.70
71666;BME280;59503;53.486;10.196;2022-08-23T08:06:13;101881.53;;;24.52;49.13
71666;BME280;59503;53.486;10.196;2022-08-23T08:08:40;101879.47;;;24.36;48.26
71666;BME280;59503;53.486;10.196;2022-08-23T08:11:07;101888.25;;;24.74;48.55
71666;BME280;59503;53.486;10.196;2022-08-23T08:13:37;101873.38;;;24.25;48.89
71666;BME280;59503;53.486;10.196;2022-08-23T08:16:02;101875.56;;;24.34;48.59
71666;BME280;59503;53.486;10.196;2022-08-23T08:18:28;101869.03;;;24.60;48.88
71666;BME280;59503;53.486;10.196;2022-08-23T08:20:53;101874.34;;;24.35;49.43
71666;BME280;59503;53.486;10.196;2022-08-23T08:23:19;101882.75;;;24.31;48.64
71666;BME280;59503;53.486;10.196;2022-08-23T08:25:45;101871.91;;;24.56;47.95
71666;BME280;59503;53.486;10.196;2022-08-23T08:28:10;101876.50;;;24.27;49.04
71666;BME280;59503;53.486;10.196;2022-08-23T08:30:36;101881.69;;;24.65;48.84
71666;BME280;59503;53.486;10.196;2022-08-23T08:33:03;101892.84;;;25.32;47.71
71666;BME280;59503;53.486;10.196;2022-08-23T08:35:28;101885.84;;;25.72;45.26
71666;BME280;59503;53.486;10.196;2022-08-23T08:37:54;101889.53;;;25.21;46.63
71666;BME280;59503;53.486;10.196;2022-08-23T08:40:26;101897.22;;;25.49;47.07
71666;BME280;59503;53.486;10.196;2022-08-23T08:43:10;101892.50;;;25.62;46.67
71666;BME280;59503;53.486;10.196;2022-08-23T08:45:52;101891.78;;;25.26;46.99
71666;BME280;59503;53.486;10.196;2022-08-23T08:48:22;101899.88;;;25.69;46.61
71666;BME280;59503;53.486;10.196;2022-08-23T08:51:02;101888.78;;;25.53;45.65
71666;BME280;59503;53.486;10.196;2022-08-23T08:53:40;101891.03;;;26.03;46.31
71666;BME280;59503;53.486;10.196;2022-08-23T08:56:22;101892.38;;;26.68;44.91
71666;BME280;59503;53.486;10.196;2022-08-23T08:58:53;101893.81;;;26.85;43.36
71666;BME280;59503;53.486;10.196;2022-08-23T09:01:20;101890.84;;;27.30;43.37
71666;BME280;59503;53.486;10.196;2022-08-23T09:03:46;101891.03;;;27.94;41.59
71666;BME280;59503;53.486;10.196;2022-08-23T09:14:44;101888.03;;;27.17;42.28
71666;BME280;59503;53.486;10.196;2022-08-23T09:17:27;101902.09;;;26.76;43.37
71666;BME280;59503;53.486;10.196;2022-08-23T09:19:57;101889.06;;;26.98;44.07
71666;BME280;59503;53.486;10.196;2022-08-23T09:22:32;101883.47;;;26.85;43.10
71666;BME280;59503;53.486;10.196;2022-08-23T09:24:59;101892.50;;;27.02;43.02
71666;BME280;59503;53.486;10.196;2022-08-23T09:27:24;101888.63;;;27.71;43.00
71666;BME280;59503;53.486;10.196;2022-08-23T09:29:54;101884.13;;;28.08;40.28
71666;BME280;59503;53.486;10.196;2022-08-23T09:32:32;101887.31;;;27.63;42.38
71666;BME280;59503;53.486;10.196;2022-08-23T09:38:14;101879.97;;;28.13;40.54
71666;BME280;59503;53.486;10.196;2022-08-23T09:40:46;101873.41;;;28.06;40.33
71666;BME280;59503;53.486;10.196;2022-08-23T09:43:25;101888.38;;;27.32;40.84
71666;BME280;59503;53.486;10.196;2022-08-23T09:51:27;101877.16;;;27.57;41.57
71666;BME280;59503;53.486;10.196;2022-08-23T09:54:01;101874.84;;;26.80;41.50
71666;BME280;59503;53.486;10.196;2022-08-23T09:56:29;101873.72;;;27.15;41.45
71666;BME280;59503;53.486;10.196;2022-08-23T09:58:56;101878.53;;;27.15;42.80
71666;BME280;59503;53.486;10.196;2022-08-23T10:01:25;101873.28;;;27.04;42.37
71666;BME280;59503;53.486;10.196;2022-08-23T10:06:32;101870.47;;;26.54;43.01
71666;BME280;59503;53.486;10.196;2022-08-23T10:09:03;101868.53;;;26.38;42.80
71666;BME280;59503;53.486;10.196;2022-08-23T10:11:42;101863.56;;;25.72;43.15
71666;BME280;59503;53.486;10.196;2022-08-23T10:14:14;101861.19;;;26.03;43.41
71666;BME280;59503;53.486;10.196;2022-08-23T10:17:03;101849.59;;;26.05;43.06
71666;BME280;59503;53.486;10.196;2022-08-23T10:22:18;101846.00;;;25.76;41.91
71666;BME280;59503;53.486;10.196;2022-08-23T10:31:06;101852.28;;;25.63;42.59
71666;BME280;59503;53.486;10.196;2022-08-23T10:33:56;101841.34;;;25.40;42.68
71666;BME280;59503;53.486;10.196;2022-08-23T10:36:33;101831.56;;;25.64;43.44
71666;BME280;59503;53.486;10.196;2022-08-23T10:39:06;101835.06;;;25.68;40.86
71666;BME280;59503;53.486;10.196;2022-08-23T10:47:03;101827.59;;;25.49;41.05
71666;BME280;59503;53.486;10.196;2022-08-23T10:49:35;101828.72;;;25.52;42.23
71666;BME280;59503;53.486;10.196;2022-08-23T10:52:04;101830.53;;;25.58;42.36
71666;BME280;59503;53.486;10.196;2022-08-23T10:54:36;101822.38;;;25.51;43.11
71666;BME280;59503;53.486;10.196;2022-08-23T10:57:14;101819.06;;;25.40;42.75
71666;BME280;59503;53.486;10.196;2022-08-23T10:59:42;101828.53;;;25.59;43.27
71666;BME280;59503;53.486;10.196;2022-08-23T11:07:20;101828.09;;;26.18;41.08
71666;BME280;59503;53.486;10.196;2022-08-23T11:10:05;101821.31;;;26.19;38.94
71666;BME280;59503;53.486;10.196;2022-08-23T11:12:48;101822.66;;;26.14;39.72
71666;BME280;59503;53.486;10.196;2022-08-23T11:15:31;101816.66;;;26.53;39.65
71666;BME280;59503;53.486;10.196;2022-08-23T11:18:05;101807.81;;;26.30;38.96
71666;BME280;59503;53.486;10.196;2022-08-23T11:26:02;101810.97;;;26.32;39.77
71666;BME280;59503;53.486;10.196;2022-08-23T11:30:57;101816.09;;;26.33;38.07
71666;BME280;59503;53.486;10.196;2022-08-23T11:33:50;101817.22;;;26.36;38.00
71666;BME280;59503;53.486;10.196;2022-08-23T11:36:22;101815.75;;;26.31;37.95
71666;BME280;59503;53.486;10.196;2022-08-23T11:41:29;101820.25;;;26.54;37.24
71666;BME280;59503;53.486;10.196;2022-08-23T11:55:00;101810.34;;;27.03;35.75
71666;BME280;59503;53.486;10.196;2022-08-23T12:00:19;101821.81;;;27.05;36.88
71666;BME280;59503;53.486;10.196;2022-08-23T12:02:57;101822.94;;;27.08;36.54
71666;BME280;59503;53.486;10.196;2022-08-23T12:18:52;101810.06;;;27.23;34.51
71666;BME280;59503;53.486;10.196;2022-08-23T12:21:24;101812.06;;;27.35;35.35
71666;BME280;59503;53.486;10.196;2022-08-23T12:23:57;101799.47;;;27.18;35.05
71666;BME280;59503;53.486;10.196;2022-08-23T12:26:25;101804.03;;;27.24;34.79
71666;BME280;59503;53.486;10.196;2022-08-23T12:31:59;101804.34;;;27.26;35.97
71666;BME280;59503;53.486;10.196;2022-08-23T12:37:07;101799.19;;;27.71;33.57
71666;BME280;59503;53.486;10.196;2022-08-23T12:39:45;101794.84;;;27.70;33.60
71666;BME280;59503;53.486;10.196;2022-08-23T12:42:16;101793.63;;;27.93;32.86
71666;BME280;59503;53.486;10.196;2022-08-23T12:44:46;101794.91;;;28.01;33.14
71666;BME280;59503;53.486;10.196;2022-08-23T12:47:22;101784.25;;;28.08;33.31
71666;BME280;59503;53.486;10.196;2022-08-23T12:50:03;101792.97;;;27.89;34.16
71666;BME280;59503;53.486;10.196;2022-08-23T12:52:32;101787.53;;;28.07;35.41
71666;BME280;59503;53.486;10.196;2022-08-23T12:54:58;101778.84;;;28.45;32.88
71666;BME280;59503;53.486;10.196;2022-08-23T12:57:35;101793.13;;;28.68;31.34
71666;BME280;59503;53.486;10.196;2022-08-23T13:00:27;101787.19;;;28.57;31.33
71666;BME280;59503;53.486;10.196;2022-08-23T13:02:58;101795.34;;;28.82;32.55
71666;BME280;59503;53.486;10.196;2022-08-23T13:05:58;101787.44;;;28.90;32.44
71666;BME280;59503;53.486;10.196;2022-08-23T13:08:33;101787.97;;;28.67;32.48
71666;BME280;59503;53.486;10.196;2022-08-23T13:11:03;101778.56;;;28.43;32.26
71666;BME280;59503;53.486;10.196;2022-08-23T13:13:29;101779.97;;;28.47;32.07
71666;BME280;59503;53.486;10.196;2022-08-23T13:15:58;101780.84;;;28.75;32.06
71666;BME280;59503;53.486;10.196;2022-08-23T13:21:16;101775.09;;;29.54;31.72
71666;BME280;59503;53.486;10.196;2022-08-23T13:23:42;101769.50;;;29.81;30.34
71666;BME280;59503;53.486;10.196;2022-08-23T13:29:11;101767.59;;;29.96;31.09
71666;BME280;59503;53.486;10.196;2022-08-23T13:31:59;101779.31;;;29.77;30.57
71666;BME280;59503;53.486;10.196;2022-08-23T13:34:40;101771.03;;;30.75;30.33
71666;BME280;59503;53.486;10.196;2022-08-23T13:37:30;101773.53;;;29.89;30.29
71666;BME280;59503;53.486;10.196;2022-08-23T13:40:05;101776.41;;;30.22;30.69
71666;BME280;59503;53.486;10.196;2022-08-23T13:42:40;101784.28;;;30.51;29.06
71666;BME280;59503;53.486;10.196;2022-08-23T13:45:12;101777.16;;;30.40;29.60
71666;BME280;59503;53.486;10.196;2022-08-23T13:47:44;101769.69;;;30.19;28.97
71666;BME280;59503;53.486;10.196;2022-08-23T13:50:18;101768.47;;;30.11;29.86
71666;BME280;59503;53.486;10.196;2022-08-23T13:52:46;101765.34;;;30.18;29.19
71666;BME280;59503;53.486;10.196;2022-08-23T13:55:12;101763.19;;;30.13;28.44
71666;BME280;59503;53.486;10.196;2022-08-23T13:57:37;101762.94;;;29.93;28.79
71666;BME280;59503;53.486;10.196;2022-08-23T14:00:04;101763.03;;;30.08;28.98
71666;BME280;59503;53.486;10.196;2022-08-23T14:02:33;101767.53;;;30.65;28.98
71666;BME280;59503;53.486;10.196;2022-08-23T14:04:58;101768.06;;;30.87;28.06
71666;BME280;59503;53.486;10.196;2022-08-23T14:07:24;101773.56;;;30.40;28.76
71666;BME280;59503;53.486;10.196;2022-08-23T14:09:49;101764.31;;;30.49;28.44
71666;BME280;59503;53.486;10.196;2022-08-23T14:12:18;101771.47;;;30.59;27.89
71666;BME280;59503;53.486;10.196;2022-08-23T14:14:46;101767.53;;;30.32;28.77
71666;BME280;59503;53.486;10.196;2022-08-23T14:17:12;101774.75;;;29.97;28.34
71666;BME280;59503;53.486;10.196;2022-08-23T14:19:38;101761.03;;;29.99;28.45
71666;BME280;59503;53.486;10.196;2022-08-23T14:22:04;101759.75;;;30.18;28.70
71666;BME280;59503;53.486;10.196;2022-08-23T14:24:29;101754.50;;;30.02;28.83
71666;BME280;59503;53.486;10.196;2022-08-23T14:26:55;101756.41;;;29.69;28.91